sensor_id;sensor_type;location;lat;lon;timestamp;pressure;altitude;pressure_sealevel;temperature;humidity
5062;BME280;2351;50.812;12.872;2022-07-17T00:00:08;98861.81;;;11.06;57.32
5062;BME280;2351;50.812;12.872;2022-07-17T00:02:40;98869.16;;;11.02;57.57
5062;BME280;2351;50.812;12.872;2022-07-17T00:05:13;98859.84;;;10.96;57.70
5062;BME280;2351;50.812;12.872;2022-07-17T00:07:45;98868.97;;;10.92;57.64
5062;BME280;2351;50.812;12.872;2022-07-17T00:10:18;98871.00;;;10.89;57.97
5062;BME280;2351;50.812;12.872;2022-07-17T00:12:50;98876.63;;;10.84;58.11
5062;BME280;2351;50.812;12.872;2022-07-17T00:15:21;98872.53;;;10.80;57.99
5062;BME280;2351;50.812;12.872;2022-07-17T00:17:53;98883.44;;;10.75;58.30
5062;BME280;2351;50.812;12.872;2022-07-17T00:20:26;98882.94;;;10.70;58.43
5062;BME280;2351;50.812;12.872;2022-07-17T00:22:58;98884.31;;;10.63;58.66
5062;BME280;2351;50.812;12.872;2022-07-17T00:25:30;98889.09;;;10.58;58.71
5062;BME280;2351;50.812;12.872;2022-07-17T00:28:02;98889.53;;;10.51;58.94
5062;BME280;2351;50.812;12.872;2022-07-17T00:30:34;98888.78;;;10.49;58.91
5062;BME280;2351;50.812;12.872;2022-07-17T00:33:06;98891.03;;;10.43;59.21
5062;BME280;2351;50.812;12.872;2022-07-17T00:35:39;98885.09;;;10.39;59.47
5062;BME280;2351;50.812;12.872;2022-07-17T00:38:11;98893.44;;;10.33;59.57
5062;BME280;2351;50.812;12.872;2022-07-17T00:40:43;98891.22;;;10.27;59.62
5062;BME280;2351;50.812;12.872;2022-07-17T00:43:15;98888.06;;;10.21;59.93
5062;BME280;2351;50.812;12.872;2022-07-17T00:45:54;98886.59;;;10.17;60.19
5062;BME280;2351;50.812;12.872;2022-07-17T00:48:26;98890.50;;;10.12;60.10
5062;BME280;2351;50.812;12.872;2022-07-17T00:50:59;98881.91;;;10.08;60.53
5062;BME280;2351;50.812;12.872;2022-07-17T00:53:32;98886.69;;;10.03;60.68
5062;BME280;2351;50.812;12.872;2022-07-17T00:56:05;98888.81;;;9.98;60.69
5062;BME280;2351;50.812;12.872;2022-07-17T00:58:37;98889.13;;;9.93;60.90
5062;BME280;2351;50.812;12.872;2022-07-17T01:01:10;98887.72;;;9.87;60.90
5062;BME280;2351;50.812;12.872;2022-07-17T01:03:42;98882.75;;;9.83;61.16
5062;BME280;2351;50.812;12.872;2022-07-17T01:06:15;98888.47;;;9.76;61.17
5062;BME280;2351;50.812;12.872;2022-07-17T01:08:46;98885.50;;;9.68;61.24
5062;BME280;2351;50.812;12.872;2022-07-17T01:11:18;98888.13;;;9.55;61.84
5062;BME280;2351;50.812;12.872;2022-07-17T01:13:49;98889.34;;;9.49;61.90
5062;BME280;2351;50.812;12.872;2022-07-17T01:16:22;98882.50;;;9.47;62.13
5062;BME280;2351;50.812;12.872;2022-07-17T01:18:54;98892.44;;;9.43;62.22
5062;BME280;2351;50.812;12.872;2022-07-17T01:21:38;98897.06;;;9.40;62.51
5062;BME280;2351;50.812;12.872;2022-07-17T01:24:10;98890.31;;;9.36;62.43
5062;BME280;2351;50.812;12.872;2022-07-17T01:26:42;98897.47;;;9.33;62.59
5062;BME280;2351;50.812;12.872;2022-07-17T01:29:15;98900.19;;;9.32;62.75
5062;BME280;2351;50.812;12.872;2022-07-17T01:31:48;98907.38;;;9.30;62.62
5062;BME280;2351;50.812;12.872;2022-07-17T01:34:19;98896.94;;;9.28;62.83
5062;BME280;2351;50.812;12.872;2022-07-17T01:36:52;98894.47;;;9.25;62.75
5062;BME280;2351;50.812;12.872;2022-07-17T01:39:24;98893.09;;;9.19;62.72
5062;BME280;2351;50.812;12.872;2022-07-17T01:42:09;98898.78;;;9.13;62.95
5062;BME280;2351;50.812;12.872;2022-07-17T01:44:41;98907.00;;;9.09;63.37
5062;BME280;2351;50.812;12.872;2022-07-17T01:47:13;98903.59;;;9.07;63.66
5062;BME280;2351;50.812;12.872;2022-07-17T01:49:46;98907.31;;;9.04;63.59
5062;BME280;2351;50.812;12.872;2022-07-17T01:52:20;98907.50;;;9.01;63.51
5062;BME280;2351;50.812;12.872;2022-07-17T01:54:52;98908.53;;;8.98;64.08
5062;BME280;2351;50.812;12.872;2022-07-17T01:57:24;98902.41;;;8.98;64.06
5062;BME280;2351;50.812;12.872;2022-07-17T01:59:55;98900.78;;;8.95;63.92
5062;BME280;2351;50.812;12.872;2022-07-17T02:02:27;98909.78;;;8.93;64.03
5062;BME280;2351;50.812;12.872;2022-07-17T02:04:59;98900.28;;;8.90;64.05
5062;BME280;2351;50.812;12.872;2022-07-17T02:07:32;98904.03;;;8.86;64.35
5062;BME280;2351;50.812;12.872;2022-07-17T02:10:06;98910.47;;;8.82;64.48
5062;BME280;2351;50.812;12.872;2022-07-17T02:12:38;98906.31;;;8.78;64.87
5062;BME280;2351;50.812;12.872;2022-07-17T02:15:09;98901.22;;;8.74;64.56
5062;BME280;2351;50.812;12.872;2022-07-17T02:17:41;98907.44;;;8.73;64.84
5062;BME280;2351;50.812;12.872;2022-07-17T02:20:13;98896.06;;;8.73;64.90
5062;BME280;2351;50.812;12.872;2022-07-17T02:22:46;98901.44;;;8.71;65.32
5062;BME280;2351;50.812;12.872;2022-07-17T02:25:18;98908.59;;;8.69;65.20
5062;BME280;2351;50.812;12.872;2022-07-17T02:27:49;98909.56;;;8.68;65.33
5062;BME280;2351;50.812;12.872;2022-07-17T02:30:21;98900.13;;;8.64;65.79
5062;BME280;2351;50.812;12.872;2022-07-17T02:32:53;98902.19;;;8.59;65.62
5062;BME280;2351;50.812;12.872;2022-07-17T02:35:24;98902.38;;;8.56;65.79
5062;BME280;2351;50.812;12.872;2022-07-17T02:37:57;98899.84;;;8.54;65.68
5062;BME280;2351;50.812;12.872;2022-07-17T02:40:29;98896.34;;;8.54;66.06
5062;BME280;2351;50.812;12.872;2022-07-17T02:43:00;98894.59;;;8.54;65.95
5062;BME280;2351;50.812;12.872;2022-07-17T02:45:32;98894.59;;;8.54;66.39
5062;BME280;2351;50.812;12.872;2022-07-17T02:48:04;98887.41;;;8.56;66.60
5062;BME280;2351;50.812;12.872;2022-07-17T02:50:36;98891.84;;;8.56;66.37
5062;BME280;2351;50.812;12.872;2022-07-17T02:53:09;98894.59;;;8.54;66.80
5062;BME280;2351;50.812;12.872;2022-07-17T02:55:40;98896.34;;;8.54;66.94
5062;BME280;2351;50.812;12.872;2022-07-17T03:01:39;98896.47;;;8.52;66.78
5062;BME280;2351;50.812;12.872;2022-07-17T03:04:10;98890.69;;;8.46;66.98
5062;BME280;2351;50.812;12.872;2022-07-17T03:06:42;98898.22;;;8.37;67.43
5062;BME280;2351;50.812;12.872;2022-07-17T03:09:15;98896.16;;;8.28;67.12
5062;BME280;2351;50.812;12.872;2022-07-17T03:11:47;98898.44;;;8.20;67.54
5062;BME280;2351;50.812;12.872;2022-07-17T03:14:18;98898.72;;;8.15;67.65
5062;BME280;2351;50.812;12.872;2022-07-17T03:16:50;98899.72;;;8.12;67.91
5062;BME280;2351;50.812;12.872;2022-07-17T03:19:21;98903.31;;;8.11;68.20
5062;BME280;2351;50.812;12.872;2022-07-17T03:21:53;98902.47;;;8.11;67.96
5062;BME280;2351;50.812;12.872;2022-07-17T03:24:26;98911.22;;;8.11;68.06
5062;BME280;2351;50.812;12.872;2022-07-17T03:26:57;98905.19;;;8.09;68.18
5062;BME280;2351;50.812;12.872;2022-07-17T03:29:29;98909.63;;;8.09;68.23
5062;BME280;2351;50.812;12.872;2022-07-17T03:32:00;98904.34;;;8.09;68.48
5062;BME280;2351;50.812;12.872;2022-07-17T03:34:32;98904.44;;;8.07;68.82
5062;BME280;2351;50.812;12.872;2022-07-17T03:37:04;98904.44;;;8.07;68.97
5062;BME280;2351;50.812;12.872;2022-07-17T03:39:37;98909.69;;;8.07;69.06
5062;BME280;2351;50.812;12.872;2022-07-17T03:42:09;98912.34;;;8.07;68.72
5062;BME280;2351;50.812;12.872;2022-07-17T03:44:40;98915.91;;;8.06;69.15
5062;BME280;2351;50.812;12.872;2022-07-17T03:47:12;98921.13;;;8.08;69.27
5062;BME280;2351;50.812;12.872;2022-07-17T03:49:44;98924.59;;;8.08;69.59
5062;BME280;2351;50.812;12.872;2022-07-17T03:52:15;98923.75;;;8.08;69.43
5062;BME280;2351;50.812;12.872;2022-07-17T03:54:48;98920.47;;;8.04;69.31
5062;BME280;2351;50.812;12.872;2022-07-17T03:57:20;98916.13;;;8.03;69.85
5062;BME280;2351;50.812;12.872;2022-07-17T03:59:51;98925.72;;;8.04;70.00
5062;BME280;2351;50.812;12.872;2022-07-17T04:02:23;98927.31;;;8.07;70.38
5062;BME280;2351;50.812;12.872;2022-07-17T04:04:55;98921.13;;;8.08;70.24
5062;BME280;2351;50.812;12.872;2022-07-17T04:07:26;98925.34;;;8.10;70.57
5062;BME280;2351;50.812;12.872;2022-07-17T04:09:59;98941.16;;;8.10;70.57
5062;BME280;2351;50.812;12.872;2022-07-17T04:12:31;98936.66;;;8.12;70.51
5062;BME280;2351;50.812;12.872;2022-07-17T04:15:03;98933.66;;;8.19;71.20
5062;BME280;2351;50.812;12.872;2022-07-17T04:17:36;98939.50;;;8.24;70.94
5062;BME280;2351;50.812;12.872;2022-07-17T04:20:08;98933.06;;;8.28;70.96
5062;BME280;2351;50.812;12.872;2022-07-17T04:22:39;98933.75;;;8.32;71.32
5062;BME280;2351;50.812;12.872;2022-07-17T04:25:12;98937.97;;;8.34;71.38
5062;BME280;2351;50.812;12.872;2022-07-17T04:27:44;98931.59;;;8.38;71.83
5062;BME280;2351;50.812;12.872;2022-07-17T04:30:15;98935.63;;;8.44;71.70
5062;BME280;2351;50.812;12.872;2022-07-17T04:32:47;98940.66;;;8.49;72.00
5062;BME280;2351;50.812;12.872;2022-07-17T04:35:19;98938.38;;;8.57;72.19
5062;BME280;2351;50.812;12.872;2022-07-17T04:37:50;98949.31;;;8.65;72.24
5062;BME280;2351;50.812;12.872;2022-07-17T04:40:23;98941.69;;;8.75;72.80
5062;BME280;2351;50.812;12.872;2022-07-17T04:42:55;98934.97;;;8.84;72.62
5062;BME280;2351;50.812;12.872;2022-07-17T04:45:27;98930.78;;;8.94;72.72
5062;BME280;2351;50.812;12.872;2022-07-17T04:47:59;98938.78;;;9.07;72.88
5062;BME280;2351;50.812;12.872;2022-07-17T04:50:30;98935.44;;;9.18;73.22
5062;BME280;2351;50.812;12.872;2022-07-17T04:53:03;98939.94;;;9.30;73.25
5062;BME280;2351;50.812;12.872;2022-07-17T04:55:36;98948.00;;;9.42;73.46
5062;BME280;2351;50.812;12.872;2022-07-17T04:58:08;98950.69;;;9.55;73.82
5062;BME280;2351;50.812;12.872;2022-07-17T05:00:39;98948.84;;;9.70;73.75
5062;BME280;2351;50.812;12.872;2022-07-17T05:03:11;98949.69;;;9.83;73.86
5062;BME280;2351;50.812;12.872;2022-07-17T05:05:43;98944.34;;;9.98;73.94
5062;BME280;2351;50.812;12.872;2022-07-17T05:08:15;98950.47;;;10.11;74.31
5062;BME280;2351;50.812;12.872;2022-07-17T05:10:48;98950.50;;;10.24;74.44
5062;BME280;2351;50.812;12.872;2022-07-17T05:13:19;98944.38;;;10.36;74.33
5062;BME280;2351;50.812;12.872;2022-07-17T05:15:51;98939.94;;;10.50;74.31
5062;BME280;2351;50.812;12.872;2022-07-17T05:18:22;98943.19;;;10.66;74.42
5062;BME280;2351;50.812;12.872;2022-07-17T05:20:54;98943.91;;;10.81;74.75
5062;BME280;2351;50.812;12.872;2022-07-17T05:23:25;98932.19;;;10.97;74.77
5062;BME280;2351;50.812;12.872;2022-07-17T05:25:58;98932.16;;;11.10;74.49
5062;BME280;2351;50.812;12.872;2022-07-17T05:28:30;98941.75;;;11.24;74.54
5062;BME280;2351;50.812;12.872;2022-07-17T05:31:01;98939.88;;;11.37;74.56
5062;BME280;2351;50.812;12.872;2022-07-17T05:33:33;98936.34;;;11.50;74.37
5062;BME280;2351;50.812;12.872;2022-07-17T05:36:05;98935.31;;;11.64;74.50
5062;BME280;2351;50.812;12.872;2022-07-17T05:38:36;98932.47;;;11.78;74.45
5062;BME280;2351;50.812;12.872;2022-07-17T05:41:09;98944.91;;;11.89;73.62
5062;BME280;2351;50.812;12.872;2022-07-17T05:43:41;98948.03;;;12.07;73.71
5062;BME280;2351;50.812;12.872;2022-07-17T05:46:12;98952.47;;;12.07;71.74
5062;BME280;2351;50.812;12.872;2022-07-17T05:48:44;98958.31;;;12.23;71.71
5062;BME280;2351;50.812;12.872;2022-07-17T05:51:16;98958.78;;;12.28;69.79
5062;BME280;2351;50.812;12.872;2022-07-17T05:53:47;98956.66;;;12.45;70.15
5062;BME280;2351;50.812;12.872;2022-07-17T05:56:20;98966.44;;;12.56;69.00
5062;BME280;2351;50.812;12.872;2022-07-17T05:58:52;98964.97;;;12.63;67.19
5062;BME280;2351;50.812;12.872;2022-07-17T06:01:23;98971.13;;;12.63;65.42
5062;BME280;2351;50.812;12.872;2022-07-17T06:03:55;98970.16;;;12.76;65.80
5062;BME280;2351;50.812;12.872;2022-07-17T06:06:26;98963.38;;;12.94;67.05
5062;BME280;2351;50.812;12.872;2022-07-17T06:08:58;98969.19;;;13.11;67.03
5062;BME280;2351;50.812;12.872;2022-07-17T06:11:32;98961.16;;;13.22;65.62
5062;BME280;2351;50.812;12.872;2022-07-17T06:14:03;98959.31;;;13.34;65.35
5062;BME280;2351;50.812;12.872;2022-07-17T06:16:35;98962.53;;;13.61;65.40
5062;BME280;2351;50.812;12.872;2022-07-17T06:19:07;98968.22;;;13.89;64.32
5062;BME280;2351;50.812;12.872;2022-07-17T06:21:38;98969.69;;;14.24;64.78
5062;BME280;2351;50.812;12.872;2022-07-17T06:24:10;98965.88;;;14.38;64.10
5062;BME280;2351;50.812;12.872;2022-07-17T06:26:43;98962.78;;;14.33;62.41
5062;BME280;2351;50.812;12.872;2022-07-17T06:29:14;98960.44;;;14.39;62.96
5062;BME280;2351;50.812;12.872;2022-07-17T06:31:46;98960.59;;;14.48;63.24
5062;BME280;2351;50.812;12.872;2022-07-17T06:34:17;98960.31;;;14.51;62.82
5062;BME280;2351;50.812;12.872;2022-07-17T06:36:49;98957.41;;;14.54;62.76
5062;BME280;2351;50.812;12.872;2022-07-17T06:39:21;98962.06;;;14.61;62.69
5062;BME280;2351;50.812;12.872;2022-07-17T06:41:54;98966.75;;;14.69;62.46
5062;BME280;2351;50.812;12.872;2022-07-17T06:44:25;98971.81;;;14.72;62.06
5062;BME280;2351;50.812;12.872;2022-07-17T06:46:57;98970.13;;;14.71;61.20
5062;BME280;2351;50.812;12.872;2022-07-17T06:49:28;98976.63;;;14.79;61.22
5062;BME280;2351;50.812;12.872;2022-07-17T06:52:00;98985.91;;;14.94;61.15
5062;BME280;2351;50.812;12.872;2022-07-17T06:54:32;98978.81;;;15.04;60.05
5062;BME280;2351;50.812;12.872;2022-07-17T06:57:04;98980.34;;;15.07;60.03
5062;BME280;2351;50.812;12.872;2022-07-17T06:59:36;98971.56;;;15.16;60.13
5062;BME280;2351;50.812;12.872;2022-07-17T07:02:08;98983.22;;;15.25;59.60
5062;BME280;2351;50.812;12.872;2022-07-17T07:04:39;98996.00;;;15.31;58.81
5062;BME280;2351;50.812;12.872;2022-07-17T07:07:11;98983.09;;;15.36;55.77
5062;BME280;2351;50.812;12.872;2022-07-17T07:09:43;98976.66;;;15.49;57.12
5062;BME280;2351;50.812;12.872;2022-07-17T07:12:16;98980.44;;;15.46;54.01
5062;BME280;2351;50.812;12.872;2022-07-17T07:14:47;98985.78;;;15.46;55.45
5062;BME280;2351;50.812;12.872;2022-07-17T07:17:19;98983.53;;;15.51;55.56
5062;BME280;2351;50.812;12.872;2022-07-17T07:19:50;98981.59;;;15.63;56.07
5062;BME280;2351;50.812;12.872;2022-07-17T07:22:22;98981.16;;;15.78;55.17
5062;BME280;2351;50.812;12.872;2022-07-17T07:24:54;98981.63;;;15.93;55.27
5062;BME280;2351;50.812;12.872;2022-07-17T07:27:27;98986.81;;;16.04;55.17
5062;BME280;2351;50.812;12.872;2022-07-17T07:29:58;98986.25;;;16.10;54.79
5062;BME280;2351;50.812;12.872;2022-07-17T07:32:30;98988.06;;;16.10;54.24
5062;BME280;2351;50.812;12.872;2022-07-17T07:35:01;98984.13;;;16.14;54.63
5062;BME280;2351;50.812;12.872;2022-07-17T07:37:33;98986.63;;;16.25;54.62
5062;BME280;2351;50.812;12.872;2022-07-17T07:40:06;98983.56;;;16.30;53.70
5062;BME280;2351;50.812;12.872;2022-07-17T07:42:39;98987.34;;;16.27;52.59
5062;BME280;2351;50.812;12.872;2022-07-17T07:45:11;98984.13;;;16.14;52.01
5062;BME280;2351;50.812;12.872;2022-07-17T07:47:44;98984.97;;;16.15;52.59
5062;BME280;2351;50.812;12.872;2022-07-17T07:50:17;98971.22;;;16.19;53.08
5062;BME280;2351;50.812;12.872;2022-07-17T07:52:50;98970.59;;;16.25;52.23
5062;BME280;2351;50.812;12.872;2022-07-17T07:55:21;98975.66;;;16.29;52.61
5062;BME280;2351;50.812;12.872;2022-07-17T07:58:03;98964.53;;;16.43;52.83
5062;BME280;2351;50.812;12.872;2022-07-17T08:00:36;98962.16;;;16.40;51.42
5062;BME280;2351;50.812;12.872;2022-07-17T08:03:08;98968.06;;;16.34;51.84
5062;BME280;2351;50.812;12.872;2022-07-17T08:05:40;98973.69;;;16.40;52.20
5062;BME280;2351;50.812;12.872;2022-07-17T08:08:12;98972.25;;;16.46;51.88
5062;BME280;2351;50.812;12.872;2022-07-17T08:10:43;98968.88;;;16.54;51.66
5062;BME280;2351;50.812;12.872;2022-07-17T08:13:16;98961.38;;;16.67;52.37
5062;BME280;2351;50.812;12.872;2022-07-17T08:15:48;98965.09;;;16.84;52.60
5062;BME280;2351;50.812;12.872;2022-07-17T08:18:19;98966.31;;;17.00;52.24
5062;BME280;2351;50.812;12.872;2022-07-17T08:20:51;98958.81;;;17.04;51.33
5062;BME280;2351;50.812;12.872;2022-07-17T08:23:23;98950.25;;;17.00;49.61
5062;BME280;2351;50.812;12.872;2022-07-17T08:25:54;98949.06;;;17.12;49.48
5062;BME280;2351;50.812;12.872;2022-07-17T08:28:27;98950.56;;;17.25;49.23
5062;BME280;2351;50.812;12.872;2022-07-17T08:30:59;98953.63;;;17.30;48.13
5062;BME280;2351;50.812;12.872;2022-07-17T08:33:30;98951.63;;;17.32;48.44
5062;BME280;2351;50.812;12.872;2022-07-17T08:36:02;98948.97;;;17.32;47.34
5062;BME280;2351;50.812;12.872;2022-07-17T08:38:34;98955.59;;;17.28;46.92
5062;BME280;2351;50.812;12.872;2022-07-17T08:41:05;98947.66;;;17.18;46.85
5062;BME280;2351;50.812;12.872;2022-07-17T08:43:41;98950.16;;;17.20;46.92
5062;BME280;2351;50.812;12.872;2022-07-17T08:46:13;98951.78;;;17.30;47.45
5062;BME280;2351;50.812;12.872;2022-07-17T08:48:46;98954.00;;;17.53;47.00
5062;BME280;2351;50.812;12.872;2022-07-17T08:51:17;98955.31;;;17.67;45.24
5062;BME280;2351;50.812;12.872;2022-07-17T08:53:49;98961.81;;;17.65;44.71
5062;BME280;2351;50.812;12.872;2022-07-17T08:56:21;98970.38;;;17.68;43.69
5062;BME280;2351;50.812;12.872;2022-07-17T08:58:54;98971.97;;;17.61;43.93
5062;BME280;2351;50.812;12.872;2022-07-17T09:01:26;98967.63;;;17.60;44.07
5062;BME280;2351;50.812;12.872;2022-07-17T09:04:00;98968.44;;;17.79;43.55
5062;BME280;2351;50.812;12.872;2022-07-17T09:06:36;98972.28;;;17.94;44.15
5062;BME280;2351;50.812;12.872;2022-07-17T09:09:09;98973.53;;;18.00;44.17
5062;BME280;2351;50.812;12.872;2022-07-17T09:11:43;98980.47;;;18.11;44.65
5062;BME280;2351;50.812;12.872;2022-07-17T09:14:18;98976.88;;;18.20;44.05
5062;BME280;2351;50.812;12.872;2022-07-17T09:16:51;98977.91;;;18.27;43.49
5062;BME280;2351;50.812;12.872;2022-07-17T09:19:25;98974.22;;;18.28;43.01
5062;BME280;2351;50.812;12.872;2022-07-17T09:22:07;98975.09;;;18.29;42.73
5062;BME280;2351;50.812;12.872;2022-07-17T09:24:41;98973.16;;;18.21;42.53
5062;BME280;2351;50.812;12.872;2022-07-17T09:27:15;98961.72;;;18.11;42.28
5062;BME280;2351;50.812;12.872;2022-07-17T09:29:52;98966.19;;;18.28;42.78
5062;BME280;2351;50.812;12.872;2022-07-17T09:32:26;98966.28;;;18.45;41.59
5062;BME280;2351;50.812;12.872;2022-07-17T09:35:00;98964.03;;;18.32;41.07
5062;BME280;2351;50.812;12.872;2022-07-17T09:37:33;98962.94;;;18.16;40.82
5062;BME280;2351;50.812;12.872;2022-07-17T09:40:09;98968.34;;;18.25;41.42
5062;BME280;2351;50.812;12.872;2022-07-17T09:42:41;98967.88;;;18.29;40.70
5062;BME280;2351;50.812;12.872;2022-07-17T09:45:14;98966.56;;;18.33;40.95
5062;BME280;2351;50.812;12.872;2022-07-17T09:47:46;98972.88;;;18.50;41.47
5062;BME280;2351;50.812;12.872;2022-07-17T09:50:18;98965.94;;;18.66;41.43
5062;BME280;2351;50.812;12.872;2022-07-17T09:52:52;98961.63;;;18.73;41.03
5062;BME280;2351;50.812;12.872;2022-07-17T09:55:28;98959.94;;;18.72;40.73
5062;BME280;2351;50.812;12.872;2022-07-17T09:58:02;98952.41;;;18.76;41.02
5062;BME280;2351;50.812;12.872;2022-07-17T10:00:36;98944.41;;;18.84;40.74
5062;BME280;2351;50.812;12.872;2022-07-17T10:03:08;98947.03;;;18.76;39.31
5062;BME280;2351;50.812;12.872;2022-07-17T10:05:40;98940.75;;;18.59;39.17
5062;BME280;2351;50.812;12.872;2022-07-17T10:08:11;98947.91;;;18.50;40.15
5062;BME280;2351;50.812;12.872;2022-07-17T10:10:43;98940.13;;;18.65;40.69
5062;BME280;2351;50.812;12.872;2022-07-17T10:13:15;98941.69;;;18.76;39.99
5062;BME280;2351;50.812;12.872;2022-07-17T10:15:50;98946.88;;;18.77;40.22
5062;BME280;2351;50.812;12.872;2022-07-17T10:18:34;98946.03;;;18.77;40.72
5062;BME280;2351;50.812;12.872;2022-07-17T10:21:10;98943.31;;;18.95;40.69
5062;BME280;2351;50.812;12.872;2022-07-17T10:23:42;98940.81;;;19.02;40.64
5062;BME280;2351;50.812;12.872;2022-07-17T10:26:14;98937.94;;;19.03;39.77
5062;BME280;2351;50.812;12.872;2022-07-17T10:28:46;98936.81;;;19.14;40.10
5062;BME280;2351;50.812;12.872;2022-07-17T10:31:27;98941.22;;;19.23;39.71
5062;BME280;2351;50.812;12.872;2022-07-17T10:34:04;98940.56;;;19.38;40.12
5062;BME280;2351;50.812;12.872;2022-07-17T10:36:40;98936.56;;;19.50;40.17
5062;BME280;2351;50.812;12.872;2022-07-17T10:39:14;98944.13;;;19.63;38.90
5062;BME280;2351;50.812;12.872;2022-07-17T10:41:56;98935.56;;;19.68;39.29
5062;BME280;2351;50.812;12.872;2022-07-17T10:44:29;98927.34;;;19.78;39.50
5062;BME280;2351;50.812;12.872;2022-07-17T10:47:03;98931.69;;;19.87;39.15
5062;BME280;2351;50.812;12.872;2022-07-17T10:49:35;98933.91;;;19.83;37.96
5062;BME280;2351;50.812;12.872;2022-07-17T10:52:07;98934.59;;;19.94;39.18
5062;BME280;2351;50.812;12.872;2022-07-17T10:54:38;98937.63;;;20.15;38.97
5062;BME280;2351;50.812;12.872;2022-07-17T10:57:10;98947.13;;;20.35;38.01
5062;BME280;2351;50.812;12.872;2022-07-17T10:59:42;98943.13;;;20.22;36.72
5062;BME280;2351;50.812;12.872;2022-07-17T11:02:14;98942.34;;;19.97;36.95
5062;BME280;2351;50.812;12.872;2022-07-17T11:04:46;98949.00;;;19.84;36.66
5062;BME280;2351;50.812;12.872;2022-07-17T11:07:18;98943.97;;;19.81;36.91
5062;BME280;2351;50.812;12.872;2022-07-17T11:09:49;98938.78;;;20.05;37.85
5062;BME280;2351;50.812;12.872;2022-07-17T11:12:30;98937.56;;;20.24;35.58
5062;BME280;2351;50.812;12.872;2022-07-17T11:15:03;98934.22;;;20.38;35.99
5062;BME280;2351;50.812;12.872;2022-07-17T11:17:36;98937.56;;;20.24;35.18
5062;BME280;2351;50.812;12.872;2022-07-17T11:20:08;98931.38;;;20.15;36.43
5062;BME280;2351;50.812;12.872;2022-07-17T11:22:40;98928.53;;;20.16;36.86
5062;BME280;2351;50.812;12.872;2022-07-17T11:25:12;98927.88;;;20.14;36.60
5062;BME280;2351;50.812;12.872;2022-07-17T11:27:43;98931.16;;;20.41;37.25
5062;BME280;2351;50.812;12.872;2022-07-17T11:30:15;98926.44;;;20.43;36.65
5062;BME280;2351;50.812;12.872;2022-07-17T11:32:48;98921.13;;;20.75;36.28
5062;BME280;2351;50.812;12.872;2022-07-17T11:35:21;98927.16;;;20.94;36.89
5062;BME280;2351;50.812;12.872;2022-07-17T11:37:53;98924.94;;;20.97;34.53
5062;BME280;2351;50.812;12.872;2022-07-17T11:40:25;98910.94;;;21.10;34.93
5062;BME280;2351;50.812;12.872;2022-07-17T11:42:59;98910.38;;;21.15;34.75
5062;BME280;2351;50.812;12.872;2022-07-17T11:45:32;98920.94;;;20.93;33.78
5062;BME280;2351;50.812;12.872;2022-07-17T11:48:06;98916.91;;;20.89;33.95
5062;BME280;2351;50.812;12.872;2022-07-17T11:50:38;98916.41;;;20.94;34.25
5062;BME280;2351;50.812;12.872;2022-07-17T11:53:09;98909.41;;;21.07;35.42
5062;BME280;2351;50.812;12.872;2022-07-17T11:55:41;98905.09;;;21.30;34.98
5062;BME280;2351;50.812;12.872;2022-07-17T11:58:13;98909.00;;;21.27;34.30
5062;BME280;2351;50.812;12.872;2022-07-17T12:00:44;98896.19;;;21.29;35.25
5062;BME280;2351;50.812;12.872;2022-07-17T12:03:25;98893.94;;;21.56;35.42
5062;BME280;2351;50.812;12.872;2022-07-17T12:05:57;98900.81;;;21.67;34.77
5062;BME280;2351;50.812;12.872;2022-07-17T12:08:28;98899.53;;;21.78;34.78
5062;BME280;2351;50.812;12.872;2022-07-17T12:11:06;98895.03;;;21.93;34.95
5062;BME280;2351;50.812;12.872;2022-07-17T12:13:40;98892.78;;;21.82;33.75
5062;BME280;2351;50.812;12.872;2022-07-17T12:16:24;98900.56;;;21.54;33.74
5062;BME280;2351;50.812;12.872;2022-07-17T12:19:06;98894.97;;;21.55;33.98
5062;BME280;2351;50.812;12.872;2022-07-17T12:21:53;98893.13;;;21.79;34.14
5062;BME280;2351;50.812;12.872;2022-07-17T12:24:28;98896.44;;;22.04;34.16
5062;BME280;2351;50.812;12.872;2022-07-17T12:27:01;98894.41;;;22.21;33.41
5062;BME280;2351;50.812;12.872;2022-07-17T12:29:33;98892.59;;;22.37;32.16
5062;BME280;2351;50.812;12.872;2022-07-17T12:32:06;98886.38;;;22.51;31.83
5062;BME280;2351;50.812;12.872;2022-07-17T12:34:41;98884.03;;;22.48;31.43
5062;BME280;2351;50.812;12.872;2022-07-17T12:37:17;98889.50;;;22.10;30.56
5062;BME280;2351;50.812;12.872;2022-07-17T12:39:49;98886.13;;;22.08;31.35
5062;BME280;2351;50.812;12.872;2022-07-17T12:42:21;98885.97;;;22.24;31.59
5062;BME280;2351;50.812;12.872;2022-07-17T12:44:53;98885.97;;;22.24;31.30
5062;BME280;2351;50.812;12.872;2022-07-17T12:47:24;98885.97;;;22.24;32.01
5062;BME280;2351;50.812;12.872;2022-07-17T12:49:57;98883.06;;;22.41;31.91
5062;BME280;2351;50.812;12.872;2022-07-17T12:52:29;98887.19;;;22.37;30.28
5062;BME280;2351;50.812;12.872;2022-07-17T12:55:00;98886.88;;;22.17;30.03
5062;BME280;2351;50.812;12.872;2022-07-17T12:57:32;98881.78;;;22.37;31.03
5062;BME280;2351;50.812;12.872;2022-07-17T13:00:05;98876.31;;;22.45;30.00
5062;BME280;2351;50.812;12.872;2022-07-17T13:02:37;98879.09;;;22.37;30.37
5062;BME280;2351;50.812;12.872;2022-07-17T13:05:10;98880.19;;;22.27;29.97
5062;BME280;2351;50.812;12.872;2022-07-17T13:07:41;98871.72;;;22.16;30.09
5062;BME280;2351;50.812;12.872;2022-07-17T13:10:13;98871.25;;;22.42;30.83
5062;BME280;2351;50.812;12.872;2022-07-17T13:12:44;98862.06;;;22.81;30.85
5062;BME280;2351;50.812;12.872;2022-07-17T13:15:16;98859.91;;;23.28;31.24
5062;BME280;2351;50.812;12.872;2022-07-17T13:17:48;98857.38;;;23.70;31.13
5062;BME280;2351;50.812;12.872;2022-07-17T13:20:21;98859.25;;;23.98;30.42
5062;BME280;2351;50.812;12.872;2022-07-17T13:22:52;98859.66;;;24.24;30.51
5062;BME280;2351;50.812;12.872;2022-07-17T13:25:24;98853.16;;;24.53;30.44
5062;BME280;2351;50.812;12.872;2022-07-17T13:27:56;98844.03;;;24.67;30.29
5062;BME280;2351;50.812;12.872;2022-07-17T13:30:27;98841.44;;;24.81;29.95
5062;BME280;2351;50.812;12.872;2022-07-17T13:32:59;98841.63;;;24.86;29.75
5062;BME280;2351;50.812;12.872;2022-07-17T13:35:32;98844.09;;;24.74;28.32
5062;BME280;2351;50.812;12.872;2022-07-17T13:38:04;98841.25;;;24.47;27.07
5062;BME280;2351;50.812;12.872;2022-07-17T13:40:38;98845.91;;;24.25;27.80
5062;BME280;2351;50.812;12.872;2022-07-17T13:43:09;98848.91;;;24.02;27.29
5062;BME280;2351;50.812;12.872;2022-07-17T13:45:41;98855.94;;;23.74;26.72